createdAt,value
2019-02-26T00:00:47.092Z,19.90
2019-02-26T00:01:48.573Z,21.40
2019-02-26T00:02:48.957Z,19.10
2019-02-26T00:03:45.074Z,24.80
2019-02-26T00:04:45.878Z,22.30
2019-02-26T00:05:47.890Z,22.30
2019-02-26T00:06:48.916Z,20.00
2019-02-26T00:07:49.202Z,22.80
2019-02-26T00:08:49.198Z,20.40
2019-02-26T00:09:45.968Z,23.40
2019-02-26T00:10:45.897Z,19.60
2019-02-26T00:11:45.050Z,19.60
2019-02-26T00:12:44.954Z,20.10
2019-02-26T00:13:45.016Z,22.80
2019-02-26T00:14:45.304Z,22.00
2019-02-26T00:15:45.913Z,21.20
2019-02-26T00:16:46.818Z,23.20
2019-02-26T00:17:45.760Z,20.90
2019-02-26T00:18:45.851Z,21.00
2019-02-26T00:19:44.926Z,20.50
2019-02-26T00:20:44.841Z,20.10
2019-02-26T00:21:45.660Z,22.30
2019-02-26T00:22:44.956Z,20.90
2019-02-26T00:23:46.517Z,23.00
2019-02-26T00:24:46.488Z,23.20
2019-02-26T00:25:45.097Z,19.70
2019-02-26T00:26:45.209Z,19.50
2019-02-26T00:27:44.987Z,20.10
2019-02-26T00:28:45.749Z,20.80
2019-02-26T00:29:46.269Z,24.30
2019-02-26T00:30:44.748Z,21.00
2019-02-26T00:31:46.088Z,18.90
2019-02-26T00:32:44.928Z,23.30
2019-02-26T00:33:44.826Z,23.60
2019-02-26T00:34:44.772Z,19.20
2019-02-26T00:35:46.089Z,25.10
2019-02-26T00:36:44.801Z,24.10
2019-02-26T00:37:46.472Z,21.40
2019-02-26T00:38:44.793Z,20.60
2019-02-26T00:39:45.335Z,25.10
2019-02-26T00:40:44.858Z,23.70
2019-02-26T00:41:44.647Z,21.90
2019-02-26T00:42:44.706Z,23.10
2019-02-26T00:43:44.579Z,23.60
2019-02-26T00:44:45.789Z,21.00
2019-02-26T00:45:44.705Z,20.90
2019-02-26T00:46:44.624Z,22.20
2019-02-26T00:47:46.158Z,22.10
2019-02-26T00:48:44.622Z,21.20
2019-02-26T00:49:46.217Z,23.70
2019-02-26T00:50:46.454Z,22.00
2019-02-26T00:51:46.528Z,20.60
2019-02-26T00:52:44.594Z,20.70
2019-02-26T00:53:44.571Z,20.70
2019-02-26T00:54:47.684Z,20.70
2019-02-26T00:55:51.584Z,22.80
2019-02-26T00:56:45.691Z,22.20
2019-02-26T00:57:46.480Z,22.80
2019-02-26T01:02:03.670Z,23.00
2019-02-26T01:03:06.083Z,22.00
2019-02-26T01:05:41.000Z,25.20
2019-02-26T01:07:54.832Z,21.00
2019-02-26T01:08:52.319Z,23.10
2019-02-26T01:09:54.686Z,23.80
2019-02-26T01:10:51.888Z,23.00
2019-02-26T01:11:54.009Z,21.00
2019-02-26T01:12:51.768Z,23.70
2019-02-26T01:13:52.818Z,23.80
2019-02-26T01:14:51.685Z,19.50
2019-02-26T01:17:18.694Z,21.90
2019-02-26T01:18:14.972Z,22.40
2019-02-26T01:19:17.601Z,23.10
2019-02-26T01:20:19.324Z,23.10
2019-02-26T01:21:14.869Z,21.70
2019-02-26T01:22:14.529Z,26.40
2019-02-26T01:23:16.326Z,22.70
2019-02-26T01:24:14.595Z,21.80
2019-02-26T01:25:15.942Z,19.70
2019-02-26T01:26:14.552Z,20.40
2019-02-26T01:27:15.168Z,24.50
2019-02-26T01:28:16.428Z,23.40
2019-02-26T01:29:18.585Z,20.20
2019-02-26T01:30:20.674Z,20.40
2019-02-26T01:31:14.385Z,22.00
2019-02-26T01:32:15.517Z,21.20
2019-02-26T01:34:28.119Z,18.20
2019-02-26T01:35:28.231Z,23.50
2019-02-26T01:36:26.650Z,21.80
2019-02-26T01:37:29.940Z,21.90
2019-02-26T01:38:29.331Z,23.10
2019-02-26T01:39:26.540Z,23.00
2019-02-26T01:40:26.525Z,22.70
2019-02-26T01:41:27.321Z,21.90
2019-02-26T01:42:27.104Z,22.90
2019-02-26T01:43:28.630Z,22.30
2019-02-26T01:44:30.425Z,23.20
2019-02-26T01:45:27.124Z,24.40
2019-02-26T01:46:26.398Z,21.90
2019-02-26T01:47:28.400Z,21.20
2019-02-26T01:49:46.407Z,23.50
2019-02-26T01:50:40.703Z,22.80
2019-02-26T01:51:42.720Z,22.10
2019-02-26T01:52:40.350Z,21.60
2019-02-26T01:53:39.734Z,24.00
2019-02-26T01:54:39.717Z,21.70
2019-02-26T01:55:41.388Z,24.60
2019-02-26T01:56:39.580Z,23.90
2019-02-26T01:57:42.559Z,21.80
2019-02-26T01:58:39.591Z,22.30
2019-02-26T01:59:39.695Z,24.90
2019-02-26T02:00:40.929Z,21.10
2019-02-26T02:01:42.069Z,22.40
2019-02-26T02:02:39.458Z,22.40
2019-02-26T02:03:39.462Z,26.30
2019-02-26T02:04:41.203Z,23.60
2019-02-26T02:05:39.580Z,23.30
2019-02-26T02:06:41.239Z,25.50
2019-02-26T02:07:39.410Z,25.40
2019-02-26T02:08:41.664Z,22.70
2019-02-26T02:09:39.461Z,22.80
2019-02-26T02:10:39.662Z,26.00
2019-02-26T02:11:40.733Z,23.40
2019-02-26T02:12:41.378Z,23.30
2019-02-26T02:13:41.253Z,25.10
2019-02-26T02:14:39.437Z,22.90
2019-02-26T02:15:40.021Z,20.60
2019-02-26T02:16:39.376Z,23.70
2019-02-26T02:17:40.086Z,24.20
2019-02-26T02:18:43.652Z,24.80
2019-02-26T02:19:40.353Z,26.20
2019-02-26T02:20:39.436Z,21.20
2019-02-26T02:21:39.369Z,23.10
2019-02-26T02:22:39.987Z,22.60
2019-02-26T02:23:39.398Z,23.50
2019-02-26T02:24:41.520Z,22.40
2019-02-26T02:25:40.783Z,23.10
2019-02-26T02:26:41.120Z,22.50
2019-02-26T02:27:39.267Z,22.00
2019-02-26T02:28:39.312Z,21.80
2019-02-26T02:29:41.835Z,24.60
2019-02-26T02:30:39.238Z,23.30
2019-02-26T02:31:40.252Z,24.40
2019-02-26T02:32:39.223Z,27.00
2019-02-26T02:33:39.145Z,25.40
2019-02-26T02:34:40.078Z,26.60
2019-02-26T02:35:39.312Z,25.30
2019-02-26T02:36:39.146Z,26.20
2019-02-26T02:37:39.152Z,25.40
2019-02-26T02:38:39.108Z,23.50
2019-02-26T02:39:39.252Z,24.40
2019-02-26T02:40:40.168Z,26.20
2019-02-26T02:41:42.201Z,24.60
2019-02-26T02:42:40.791Z,25.10
2019-02-26T02:43:39.063Z,25.40
2019-02-26T02:44:41.024Z,24.90
2019-02-26T02:45:39.128Z,25.50
2019-02-26T02:46:39.810Z,24.00
2019-02-26T02:47:39.099Z,22.60
2019-02-26T02:48:39.793Z,24.60
2019-02-26T02:49:39.900Z,25.00
2019-02-26T02:50:39.034Z,24.00
2019-02-26T02:51:39.544Z,23.90
2019-02-26T02:52:38.979Z,23.50
2019-02-26T02:53:38.944Z,23.80
2019-02-26T02:54:41.133Z,26.40
2019-02-26T02:55:40.271Z,21.60
2019-02-26T02:56:39.920Z,22.30
2019-02-26T02:57:38.942Z,21.40
2019-02-26T02:58:40.935Z,25.40
2019-02-26T02:59:41.801Z,22.20
2019-02-26T03:00:38.851Z,21.90
2019-02-26T03:01:38.892Z,26.30
2019-02-26T03:02:42.756Z,23.90
2019-02-26T03:03:39.791Z,24.60
2019-02-26T03:04:38.751Z,24.20
2019-02-26T03:05:41.263Z,24.00
2019-02-26T03:06:39.284Z,23.20
2019-02-26T03:07:38.803Z,22.80
2019-02-26T03:08:39.518Z,21.10
2019-02-26T03:09:40.455Z,23.00
2019-02-26T03:10:40.099Z,24.70
2019-02-26T03:11:41.005Z,22.40
2019-02-26T03:12:38.750Z,22.70
2019-02-26T03:13:40.339Z,26.00
2019-02-26T03:14:40.098Z,21.40
2019-02-26T03:15:38.737Z,19.40
2019-02-26T03:16:41.929Z,22.00
2019-02-26T03:17:38.747Z,23.50
2019-02-26T03:18:38.640Z,23.00
2019-02-26T03:19:41.561Z,23.00
2019-02-26T03:20:40.387Z,22.40
2019-02-26T03:21:38.634Z,22.90
2019-02-26T03:22:41.503Z,23.10
2019-02-26T03:23:41.228Z,23.90
2019-02-26T03:24:38.615Z,24.60
2019-02-26T03:25:38.599Z,23.20
2019-02-26T03:26:38.553Z,22.50
2019-02-26T03:27:40.613Z,22.50
2019-02-26T03:28:39.976Z,23.80
2019-02-26T03:29:38.558Z,23.70
2019-02-26T03:30:43.641Z,20.90
2019-02-26T03:31:41.257Z,25.40
2019-02-26T03:32:41.425Z,22.00
2019-02-26T03:33:39.522Z,23.40
2019-02-26T03:34:38.494Z,23.60
2019-02-26T03:35:38.569Z,22.50
2019-02-26T03:36:40.815Z,25.30
2019-02-26T03:37:38.472Z,24.80
2019-02-26T03:38:40.876Z,23.30
2019-02-26T03:39:39.449Z,22.60
2019-02-26T03:40:38.408Z,22.30
2019-02-26T03:41:38.347Z,22.40
2019-02-26T03:42:40.452Z,25.20
2019-02-26T03:43:39.358Z,24.90
2019-02-26T03:44:38.423Z,23.20
2019-02-26T03:45:38.398Z,24.00
2019-02-26T03:46:38.340Z,25.10
2019-02-26T03:47:40.651Z,26.10
2019-02-26T03:48:38.413Z,30.20
2019-02-26T03:49:41.727Z,29.60
2019-02-26T03:50:38.356Z,26.90
2019-02-26T03:51:39.685Z,25.80
2019-02-26T03:52:38.272Z,26.30
2019-02-26T03:53:39.146Z,27.80
2019-02-26T03:54:40.239Z,25.40
2019-02-26T03:55:38.979Z,25.30
2019-02-26T03:56:38.232Z,25.90
2019-02-26T03:57:40.978Z,27.10
2019-02-26T03:58:38.197Z,27.60
2019-02-26T03:59:38.207Z,25.80
2019-02-26T04:00:40.966Z,26.90
2019-02-26T04:01:38.185Z,28.20
2019-02-26T04:02:39.938Z,28.30
2019-02-26T04:03:39.643Z,28.70
2019-02-26T04:04:38.165Z,27.50
2019-02-26T04:05:38.150Z,28.50
2019-02-26T04:06:38.920Z,25.80
2019-02-26T04:07:38.191Z,27.70
2019-02-26T04:08:38.066Z,26.10
2019-02-26T04:09:41.811Z,28.50
2019-02-26T04:10:38.132Z,25.80
2019-02-26T04:11:39.620Z,26.80
2019-02-26T04:12:41.903Z,28.20
2019-02-26T04:13:38.125Z,29.10
2019-02-26T04:14:38.096Z,26.50
2019-02-26T04:15:38.373Z,29.10
2019-02-26T04:16:40.436Z,25.90
2019-02-26T04:17:40.125Z,27.20
2019-02-26T04:18:37.995Z,24.70
2019-02-26T04:19:38.053Z,25.50
2019-02-26T04:20:43.243Z,28.80
2019-02-26T04:21:39.057Z,26.50
2019-02-26T04:22:42.244Z,27.80
2019-02-26T04:23:41.413Z,26.20
2019-02-26T04:24:38.119Z,28.60
2019-02-26T04:25:37.894Z,27.40
2019-02-26T04:26:37.855Z,26.60
2019-02-26T04:27:39.327Z,25.50
2019-02-26T04:28:40.163Z,24.50
2019-02-26T04:29:38.584Z,30.10
2019-02-26T04:30:39.343Z,30.60
2019-02-26T04:31:37.805Z,27.70
2019-02-26T04:32:40.438Z,28.40
2019-02-26T04:33:40.717Z,27.10
2019-02-26T04:34:37.838Z,27.10
2019-02-26T04:35:37.822Z,26.50
2019-02-26T04:36:39.813Z,25.30
2019-02-26T04:37:38.606Z,23.00
2019-02-26T04:38:37.760Z,24.80
2019-02-26T04:39:40.324Z,27.80
2019-02-26T04:40:38.916Z,25.70
2019-02-26T04:41:37.737Z,24.50
2019-02-26T04:42:40.410Z,23.30
2019-02-26T04:43:38.833Z,25.20
2019-02-26T04:44:38.807Z,25.40
2019-02-26T04:45:37.813Z,25.70
2019-02-26T04:46:39.507Z,24.00
2019-02-26T04:47:40.469Z,26.40
2019-02-26T04:48:37.720Z,26.00
2019-02-26T04:49:42.124Z,25.60
2019-02-26T04:50:41.032Z,27.40
2019-02-26T04:51:41.530Z,27.90
2019-02-26T04:52:40.113Z,25.10
2019-02-26T04:53:37.675Z,26.50
2019-02-26T04:54:39.551Z,27.60
2019-02-26T04:55:39.123Z,30.10
2019-02-26T04:56:40.112Z,29.90
2019-02-26T04:57:39.639Z,31.40
2019-02-26T04:58:39.776Z,32.50
2019-02-26T04:59:38.720Z,30.90
2019-02-26T05:00:38.673Z,29.80
2019-02-26T05:01:37.567Z,30.80
2019-02-26T05:02:37.657Z,28.40
2019-02-26T05:03:37.510Z,30.50
2019-02-26T05:04:39.468Z,33.00
2019-02-26T05:05:37.522Z,29.10
2019-02-26T05:06:37.582Z,32.90
2019-02-26T05:07:38.438Z,29.70
2019-02-26T05:08:39.616Z,31.30
2019-02-26T05:09:37.417Z,30.30
2019-02-26T05:10:37.390Z,29.10
2019-02-26T05:11:40.627Z,29.90
2019-02-26T05:12:40.183Z,27.90
2019-02-26T05:13:38.424Z,27.10
2019-02-26T05:14:40.230Z,25.10
2019-02-26T05:15:37.364Z,27.00
2019-02-26T05:16:40.143Z,29.10
2019-02-26T05:17:37.383Z,29.80
2019-02-26T05:18:38.197Z,29.80
2019-02-26T05:19:39.580Z,30.00
2019-02-26T05:20:42.547Z,29.80
2019-02-26T05:21:37.961Z,27.60
2019-02-26T05:22:37.262Z,27.20
2019-02-26T05:23:37.388Z,29.50
2019-02-26T05:24:38.550Z,30.20
2019-02-26T05:25:39.663Z,25.30
2019-02-26T05:26:37.327Z,26.20
2019-02-26T05:27:40.113Z,28.90
2019-02-26T05:28:40.821Z,27.50
2019-02-26T05:29:40.466Z,27.00
2019-02-26T05:30:40.407Z,28.70
2019-02-26T05:31:37.864Z,30.20
2019-02-26T05:32:37.205Z,29.50
2019-02-26T05:33:37.140Z,29.70
2019-02-26T05:34:39.301Z,26.70
2019-02-26T05:35:37.995Z,26.20
2019-02-26T05:36:42.013Z,25.10
2019-02-26T05:37:40.855Z,27.00
2019-02-26T05:40:24.496Z,23.00
2019-02-26T05:41:01.164Z,29.00
2019-02-26T05:42:01.301Z,27.10
2019-02-26T05:43:01.861Z,26.80
2019-02-26T05:44:03.498Z,30.20
2019-02-26T05:45:02.970Z,29.60
2019-02-26T05:46:03.879Z,31.10
2019-02-26T05:47:01.647Z,31.90
2019-02-26T05:48:00.394Z,29.90
2019-02-26T05:49:00.342Z,35.20
2019-02-26T05:50:02.717Z,29.20
2019-02-26T05:51:03.547Z,29.90
2019-02-26T05:52:03.705Z,29.20
2019-02-26T05:53:04.694Z,31.10
2019-02-26T05:55:20.587Z,28.90
2019-02-26T05:56:20.684Z,26.80
2019-02-26T05:57:27.667Z,28.90
2019-02-26T05:58:21.437Z,28.00
2019-02-26T05:59:21.603Z,31.40
2019-02-26T06:00:22.706Z,29.50
2019-02-26T06:01:22.524Z,27.40
2019-02-26T06:02:21.650Z,29.00
2019-02-26T06:03:19.363Z,30.40
2019-02-26T06:04:20.617Z,28.50
2019-02-26T06:05:20.465Z,28.80
2019-02-26T06:06:20.229Z,30.10
2019-02-26T06:07:23.903Z,31.40
2019-02-26T06:08:20.269Z,34.20
2019-02-26T06:09:20.161Z,32.20
2019-02-26T06:10:21.485Z,30.90
2019-02-26T06:11:19.233Z,34.20
2019-02-26T06:12:19.376Z,33.70
2019-02-26T06:13:19.172Z,33.90
2019-02-26T06:14:19.186Z,30.30
2019-02-26T06:15:20.393Z,31.10
2019-02-26T06:16:21.308Z,34.70
2019-02-26T06:17:19.829Z,31.20
2019-02-26T06:18:20.935Z,31.00
2019-02-26T06:19:19.137Z,33.80
2019-02-26T06:20:19.111Z,30.50
2019-02-26T06:21:20.850Z,29.50
2019-02-26T06:22:21.388Z,29.10
2019-02-26T06:23:19.055Z,30.60
2019-02-26T06:24:22.446Z,32.00
2019-02-26T06:25:23.834Z,30.70
2019-02-26T06:26:20.046Z,33.30
2019-02-26T06:27:21.827Z,36.40
2019-02-26T06:28:20.529Z,32.20
2019-02-26T06:29:22.295Z,34.00
2019-02-26T06:30:18.993Z,32.80
2019-02-26T06:31:22.216Z,33.30
2019-02-26T06:32:19.996Z,30.00
2019-02-26T06:33:19.012Z,28.80
2019-02-26T06:34:21.403Z,30.10
2019-02-26T06:35:19.574Z,29.90
2019-02-26T06:44:02.271Z,26.30
2019-02-26T06:50:18.931Z,28.50
2019-02-26T06:51:18.995Z,26.90
2019-02-26T06:52:18.016Z,27.80
2019-02-26T06:53:20.982Z,29.10
2019-02-26T06:54:17.725Z,28.20
2019-02-26T06:55:17.189Z,27.40
2019-02-26T06:56:18.007Z,29.50
2019-02-26T06:57:17.178Z,32.80
2019-02-26T06:58:17.135Z,34.10
2019-02-26T06:59:17.307Z,35.60
2019-02-26T07:00:19.684Z,36.80
2019-02-26T07:01:18.840Z,34.50
2019-02-26T07:02:17.132Z,36.70
2019-02-26T07:03:17.081Z,34.90
2019-02-26T07:04:17.147Z,33.30
2019-02-26T07:05:19.125Z,35.30
2019-02-26T07:06:20.562Z,35.20
2019-02-26T07:09:35.013Z,31.30
2019-02-26T09:02:25.150Z,43.40
2019-02-26T11:08:08.865Z,12.10
2019-02-26T11:10:17.531Z,15.30
2019-02-26T11:15:39.616Z,18.60
2019-02-26T11:16:39.197Z,20.50
2019-02-26T11:17:39.156Z,19.70
2019-02-26T11:18:39.861Z,23.00
2019-02-26T11:19:41.736Z,22.90
2019-02-26T11:33:52.333Z,27.00
2019-02-26T11:36:02.856Z,26.90
2019-02-26T11:37:08.518Z,25.50
2019-02-26T11:52:46.101Z,26.80
2019-02-26T11:59:33.295Z,21.60
2019-02-26T12:13:50.239Z,28.90
2019-02-26T12:14:49.514Z,24.70
2019-02-26T12:15:48.417Z,24.00
2019-02-26T12:16:48.448Z,24.90
2019-02-26T12:19:14.436Z,27.30
2019-02-26T12:20:14.778Z,26.70
2019-02-26T12:21:14.105Z,25.90
2019-02-26T12:22:13.982Z,27.00
2019-02-26T12:23:16.275Z,26.10
2019-02-26T12:25:38.425Z,22.50
2019-02-26T12:26:49.960Z,26.90
2019-02-26T12:27:39.014Z,30.70
2019-02-26T12:28:40.254Z,28.40
2019-02-26T12:31:34.543Z,25.50
2019-02-26T12:33:59.818Z,25.50
2019-02-26T14:17:11.445Z,27.20
2019-02-26T14:18:11.048Z,20.40
2019-02-26T14:19:11.103Z,19.50
2019-02-26T14:20:11.688Z,22.00
2019-02-26T14:23:08.418Z,19.80
2019-02-26T14:28:56.521Z,18.20
2019-02-26T14:31:19.848Z,19.20
2019-02-26T14:32:19.329Z,19.10
2019-02-26T14:33:19.354Z,21.20
2019-02-26T14:34:19.252Z,19.50
2019-02-26T14:35:19.109Z,17.70
2019-02-26T14:36:19.382Z,18.00
2019-02-26T14:37:19.071Z,20.80
2019-02-26T14:38:19.068Z,18.10
2019-02-26T14:39:19.040Z,17.50
2019-02-26T14:43:53.228Z,20.90
2019-02-26T14:44:52.881Z,17.40
2019-02-26T14:45:52.898Z,18.10
2019-02-26T14:46:52.900Z,17.40
2019-02-26T14:47:52.890Z,18.20
2019-02-26T14:48:52.778Z,18.60
2019-02-26T14:49:52.852Z,16.90
2019-02-26T14:50:52.631Z,17.60
2019-02-26T14:51:52.642Z,16.40
2019-02-26T14:52:52.604Z,16.20
2019-02-26T14:53:52.523Z,19.20
2019-02-26T14:54:52.532Z,19.10
2019-02-26T14:55:53.157Z,18.30
2019-02-26T14:56:52.495Z,19.90
2019-02-26T14:57:52.486Z,16.80
2019-02-26T14:58:52.489Z,19.90
2019-02-26T14:59:52.486Z,17.50
2019-02-26T15:00:57.683Z,17.70
2019-02-26T15:01:53.844Z,18.40
2019-02-26T15:02:52.452Z,17.40
2019-02-26T15:03:52.425Z,17.50
2019-02-26T15:04:52.421Z,18.30
2019-02-26T15:05:52.445Z,17.80
2019-02-26T15:06:52.386Z,18.60
2019-02-26T15:07:52.483Z,18.30
2019-02-26T15:08:52.400Z,17.30
2019-02-26T15:09:52.471Z,15.30
2019-02-26T15:10:52.347Z,16.30
2019-02-26T15:11:52.336Z,20.70
2019-02-26T15:12:52.351Z,17.70
2019-02-26T15:13:52.357Z,16.80
2019-02-26T15:14:52.297Z,16.10
2019-02-26T15:15:52.320Z,16.00
2019-02-26T15:16:52.348Z,19.20
2019-02-26T15:17:52.312Z,18.60
2019-02-26T15:18:52.319Z,18.40
2019-02-26T15:19:53.297Z,17.50
2019-02-26T15:20:52.270Z,18.40
2019-02-26T15:21:52.217Z,17.50
2019-02-26T15:22:52.222Z,18.00
2019-02-26T15:23:52.237Z,18.80
2019-02-26T15:24:52.208Z,18.20
2019-02-26T15:25:52.174Z,16.90
2019-02-26T15:26:52.175Z,16.00
2019-02-26T15:27:52.164Z,19.70
2019-02-26T15:28:52.295Z,17.60
2019-02-26T15:29:52.134Z,17.80
2019-02-26T15:30:52.118Z,17.00
2019-02-26T15:31:52.109Z,17.00
2019-02-26T15:32:52.114Z,17.70
2019-02-26T15:33:52.089Z,18.10
2019-02-26T15:34:52.265Z,17.20
2019-02-26T15:35:52.074Z,16.60
2019-02-26T15:36:52.057Z,18.50
2019-02-26T15:37:52.105Z,18.70
2019-02-26T15:38:52.034Z,18.30
2019-02-26T15:39:52.024Z,17.30
2019-02-26T15:40:53.355Z,19.40
2019-02-26T15:41:52.052Z,17.70
2019-02-26T15:42:53.157Z,16.20
2019-02-26T15:43:51.981Z,18.60
2019-02-26T15:44:52.048Z,19.50
2019-02-26T15:45:52.374Z,14.80
2019-02-26T15:46:51.979Z,15.40
2019-02-26T15:47:51.942Z,16.10
2019-02-26T15:48:51.939Z,18.70
2019-02-26T15:49:51.977Z,13.80
2019-02-26T15:50:51.923Z,16.50
2019-02-26T15:51:51.928Z,13.30
2019-02-26T15:52:53.028Z,12.80
2019-02-26T15:53:55.191Z,13.80
2019-02-26T15:54:51.892Z,17.80
2019-02-26T15:55:51.854Z,12.90
2019-02-26T15:56:51.945Z,16.90
2019-02-26T15:57:51.830Z,17.60
2019-02-26T15:58:51.892Z,19.70
2019-02-26T15:59:51.849Z,18.90
2019-02-26T16:00:51.897Z,18.60
2019-02-26T16:01:55.313Z,19.60
2019-02-26T16:02:51.767Z,22.40
2019-02-26T16:03:51.818Z,20.30
2019-02-26T16:04:51.755Z,20.70
2019-02-26T16:05:51.742Z,23.60
2019-02-26T16:06:51.740Z,19.70
2019-02-26T16:07:51.797Z,17.50
2019-02-26T16:08:51.806Z,23.60
2019-02-26T16:09:51.700Z,23.40
2019-02-26T16:10:51.735Z,22.50
2019-02-26T16:11:51.714Z,24.00
2019-02-26T16:12:51.684Z,23.50
2019-02-26T16:13:51.701Z,21.30
2019-02-26T16:14:51.639Z,29.00
2019-02-26T16:15:51.667Z,22.80
2019-02-26T16:16:51.656Z,23.30
2019-02-26T16:17:51.645Z,23.20
2019-02-26T16:18:52.320Z,23.90
2019-02-26T16:19:51.576Z,23.60
2019-02-26T16:20:51.593Z,24.10
2019-02-26T16:21:51.577Z,26.00
2019-02-26T16:22:51.555Z,24.70
2019-02-26T16:23:51.552Z,26.30
2019-02-26T16:24:51.609Z,24.00
2019-02-26T16:25:51.544Z,25.10
2019-02-26T18:00:09.297Z,18.70
2019-02-26T19:09:06.405Z,30.60
2019-02-26T19:17:45.329Z,36.10
2019-02-26T19:18:44.773Z,35.70
2019-02-26T19:24:44.869Z,28.60
2019-02-26T19:32:11.059Z,29.70
2019-02-26T20:48:59.796Z,32.30
2019-02-26T20:49:59.374Z,37.60
2019-02-26T20:51:00.426Z,37.90
2019-02-26T20:51:59.643Z,36.90
2019-02-26T20:53:00.043Z,39.90
2019-02-26T20:53:59.178Z,35.40
2019-02-26T20:54:59.973Z,37.10
2019-02-26T20:55:59.326Z,36.50
2019-02-26T21:02:13.004Z,33.90
2019-02-26T21:39:10.862Z,35.60
2019-02-26T21:40:07.711Z,40.00
2019-02-26T21:41:07.708Z,46.10
2019-02-26T21:42:07.019Z,40.30
2019-02-26T21:43:07.050Z,39.60
2019-02-26T21:44:08.983Z,40.70
2019-02-26T21:45:06.997Z,42.90
2019-02-26T21:46:07.027Z,40.70
2019-02-26T21:47:06.895Z,40.00
2019-02-26T21:48:06.930Z,44.00
2019-02-26T21:49:07.516Z,38.40
2019-02-26T21:50:06.902Z,40.30
2019-02-26T21:51:06.955Z,44.40
2019-02-26T21:52:09.051Z,41.50
2019-02-26T21:53:06.905Z,41.20
2019-02-26T21:54:06.822Z,41.20
2019-02-26T21:55:07.022Z,42.30
2019-02-26T21:56:06.842Z,40.40
2019-02-26T21:57:06.898Z,37.70
2019-02-26T21:58:06.805Z,40.50
2019-02-26T21:59:06.966Z,38.80
2019-02-26T22:00:06.953Z,41.20
2019-02-26T22:01:06.864Z,40.00
2019-02-26T22:02:06.820Z,42.90
2019-02-26T22:03:06.780Z,42.20
2019-02-26T22:04:06.737Z,48.90
2019-02-26T22:05:08.121Z,43.20
2019-02-26T22:06:10.730Z,40.60
2019-02-26T22:07:06.665Z,43.40
2019-02-26T22:08:06.733Z,39.90
2019-02-26T22:09:06.664Z,43.30
2019-02-26T22:10:07.364Z,41.80
2019-02-26T22:11:06.652Z,39.40
2019-02-26T22:12:06.616Z,45.70
2019-02-26T22:13:06.636Z,41.70
2019-02-26T22:14:06.649Z,42.20
2019-02-26T22:15:10.220Z,41.10
2019-02-26T22:16:06.564Z,41.20
2019-02-26T22:17:06.570Z,45.60
2019-02-26T22:18:06.582Z,43.60
2019-02-26T22:19:07.108Z,42.30
2019-02-26T22:20:09.185Z,40.60
2019-02-26T22:21:06.542Z,41.10
2019-02-26T22:22:06.575Z,44.80
2019-02-26T22:23:06.501Z,41.10
2019-02-26T22:24:07.095Z,42.50
2019-02-26T22:25:09.625Z,44.10
2019-02-26T22:26:06.488Z,40.10
2019-02-26T22:27:06.508Z,41.30
2019-02-26T22:28:08.562Z,41.60
2019-02-26T22:29:07.940Z,39.80
2019-02-26T22:30:06.495Z,37.90
2019-02-26T22:31:06.413Z,39.40
2019-02-26T22:32:06.431Z,41.70
2019-02-26T22:33:07.913Z,37.40
2019-02-26T22:34:06.415Z,41.90
2019-02-26T22:35:06.354Z,44.20
2019-02-26T22:36:06.407Z,42.10
2019-02-26T22:37:07.338Z,44.70
2019-02-26T22:38:06.667Z,42.80
2019-02-26T22:39:06.328Z,42.60
2019-02-26T22:40:06.399Z,48.70
2019-02-26T22:41:06.412Z,42.90
2019-02-26T22:42:08.055Z,42.30
2019-02-26T22:43:06.407Z,44.40
2019-02-26T22:44:06.329Z,38.40
2019-02-26T22:45:06.306Z,40.30
2019-02-26T22:46:06.421Z,41.40
2019-02-26T22:47:07.040Z,41.30
2019-02-26T22:48:06.314Z,42.60
2019-02-26T22:49:06.263Z,44.10
2019-02-26T22:50:07.873Z,44.50
2019-02-26T22:51:06.308Z,42.70
2019-02-26T22:52:06.281Z,43.80
2019-02-26T22:53:06.239Z,43.60
2019-02-26T22:54:09.471Z,40.20
2019-02-26T22:55:06.233Z,42.30
2019-02-26T22:56:06.260Z,44.10
2019-02-26T22:57:06.199Z,41.80
2019-02-26T22:58:06.239Z,41.40
2019-02-26T22:59:07.989Z,39.90
2019-02-26T23:00:06.123Z,39.00
2019-02-26T23:01:06.159Z,44.80
2019-02-26T23:02:08.529Z,41.10
2019-02-26T23:03:06.151Z,44.60
2019-02-26T23:04:06.066Z,45.00
2019-02-26T23:05:06.069Z,42.40
2019-02-26T23:06:06.134Z,41.30
2019-02-26T23:07:06.061Z,41.70
2019-02-26T23:08:06.066Z,43.10
2019-02-26T23:09:06.020Z,41.90
2019-02-26T23:10:06.011Z,40.00
2019-02-26T23:11:05.992Z,40.40
2019-02-26T23:12:06.042Z,40.70
2019-02-26T23:13:05.964Z,42.80
2019-02-26T23:14:05.958Z,42.90
2019-02-26T23:15:05.950Z,43.90
2019-02-26T23:16:05.958Z,40.50
2019-02-26T23:17:05.960Z,41.60
2019-02-26T23:18:05.944Z,43.00
2019-02-26T23:19:05.896Z,43.30
2019-02-26T23:20:07.657Z,47.40
2019-02-26T23:21:05.976Z,39.60
2019-02-26T23:22:05.960Z,38.80
2019-02-26T23:23:05.827Z,43.90
2019-02-26T23:24:05.860Z,42.00
2019-02-26T23:25:05.889Z,42.80
2019-02-26T23:26:08.720Z,42.70
2019-02-26T23:27:05.796Z,44.40
2019-02-26T23:28:05.846Z,41.50
2019-02-26T23:29:05.774Z,41.10
2019-02-26T23:30:05.794Z,40.40
2019-02-26T23:31:05.823Z,41.70
2019-02-26T23:32:06.161Z,42.80
2019-02-26T23:33:05.716Z,39.70
2019-02-26T23:34:05.747Z,42.00
2019-02-26T23:35:05.727Z,43.70
2019-02-26T23:36:05.764Z,41.40
2019-02-26T23:37:05.739Z,44.10
2019-02-26T23:38:07.990Z,45.20
2019-02-26T23:39:05.710Z,41.80
2019-02-26T23:40:06.312Z,40.50
2019-02-26T23:41:05.696Z,41.60
2019-02-26T23:42:06.589Z,41.50
2019-02-26T23:43:05.731Z,44.60
2019-02-26T23:44:05.707Z,42.10
2019-02-26T23:45:05.630Z,45.30
2019-02-26T23:46:05.637Z,43.70
2019-02-26T23:47:05.597Z,41.70
2019-02-26T23:48:07.944Z,44.20
2019-02-26T23:49:05.568Z,42.40
2019-02-26T23:50:05.639Z,45.80
2019-02-26T23:51:05.584Z,42.60
2019-02-26T23:52:05.520Z,43.30
2019-02-26T23:53:05.532Z,46.50
2019-02-26T23:54:07.337Z,45.60
2019-02-26T23:55:05.515Z,44.50
2019-02-26T23:56:05.507Z,43.70
2019-02-26T23:57:05.522Z,48.50
2019-02-26T23:58:05.582Z,43.00
2019-02-26T23:59:05.509Z,42.30
